Time;durP1;ratioP1;P1;durP2;ratioP2;P2;SDS_P1;SDS_P2;PMS_P1;PMS_P2;Temp;Humidity;BMP_temperature;BMP_pressure;BME280_temperature;BME280_humidity;BME280_pressure;Samples;Min_cycle;Max_cycle;Signal;HPM_P1;HPM_P2
2023/06/03 00:01:40;;;;;;;6.40;3.70;;;;;;;16.41;100.00;97701.69;1710908;75;691519;-69
2023/06/03 00:04:14;;;;;;;3.25;2.85;;;;;;;16.40;100.00;97698.19;1701414;75;729604;-68
2023/06/03 00:06:44;;;;;;;5.00;4.30;;;;;;;16.15;100.00;97688.31;1710150;75;680805;-69
2023/06/03 00:09:14;;;;;;;4.90;4.20;;;;;;;16.22;100.00;97692.53;1701453;75;747293;-71
2023/06/03 00:11:46;;;;;;;3.90;3.10;;;;;;;16.26;100.00;97685.47;1707812;75;778987;-68
2023/06/03 00:14:19;;;;;;;3.85;2.90;;;;;;;16.21;100.00;97686.28;1701655;75;746177;-69
2023/06/03 00:16:50;;;;;;;3.90;2.70;;;;;;;16.22;100.00;97684.25;1709444;75;694309;-69
2023/06/03 00:19:20;;;;;;;4.70;4.00;;;;;;;16.09;100.00;97690.34;1686017;75;1933644;-70
2023/06/03 00:21:54;;;;;;;4.00;3.20;;;;;;;16.13;100.00;97688.81;1709057;75;746388;-74
2023/06/03 00:24:24;;;;;;;3.70;3.00;;;;;;;16.12;100.00;97681.81;1701722;75;737329;-73
2023/06/03 00:26:55;;;;;;;2.70;2.30;;;;;;;16.20;100.00;97695.81;1695415;75;1917625;-72
2023/06/03 00:29:29;;;;;;;2.45;2.25;;;;;;;16.10;100.00;97694.63;1700343;75;745898;-71
2023/06/03 00:31:59;;;;;;;5.80;3.90;;;;;;;16.00;100.00;97702.47;1710745;75;668107;-69
2023/06/03 00:34:29;;;;;;;3.60;3.25;;;;;;;16.01;100.00;97694.94;1700941;75;747337;-71
2023/06/03 00:36:59;;;;;;;3.60;3.30;;;;;;;15.88;100.00;97699.03;1710114;75;678393;-72
2023/06/03 00:39:29;;;;;;;3.75;2.95;;;;;;;15.75;100.00;97691.31;1700478;75;755919;-70
2023/06/03 00:42:01;;;;;;;3.55;2.95;;;;;;;15.80;100.00;97700.06;1686068;75;2756633;-68
2023/06/03 00:44:34;;;;;;;2.70;2.50;;;;;;;15.73;100.00;97699.38;1699075;75;834900;-69
2023/06/03 00:47:04;;;;;;;4.40;3.30;;;;;;;15.57;100.00;97699.41;1710329;75;671827;-69
2023/06/03 00:49:37;;;;;;;4.95;3.75;;;;;;;15.52;100.00;97704.44;1701331;75;742186;-68
2023/06/03 00:52:10;;;;;;;2.80;2.60;;;;;;;15.61;100.00;97703.41;1710263;75;671002;-71
2023/06/03 00:54:41;;;;;;;2.45;2.25;;;;;;;15.63;100.00;97714.66;1699585;75;844033;-71
2023/06/03 00:57:12;;;;;;;2.40;2.20;;;;;;;15.57;100.00;97719.47;1709183;75;700495;-71
2023/06/03 00:59:45;;;;;;;2.10;1.90;;;;;;;15.52;100.00;97718.25;1700956;75;742188;-72
2023/06/03 01:02:15;;;;;;;2.50;2.00;;;;;;;15.49;100.00;97718.50;1710274;75;689055;-69
2023/06/03 01:04:48;;;;;;;3.35;2.30;;;;;;;15.49;100.00;97716.50;1701515;75;743642;-69
2023/06/03 01:07:29;;;;;;;3.30;2.90;;;;;;;15.33;100.00;97707.00;1710026;75;682092;-69
2023/06/03 01:10:12;;;;;;;3.85;3.50;;;;;;;15.14;100.00;97714.34;1701019;75;756795;-70
2023/06/03 01:12:54;;;;;;;3.30;2.95;;;;;;;15.10;100.00;97719.38;1702555;75;669894;-68
2023/06/03 01:15:31;;;;;;;4.10;3.10;;;;;;;15.15;100.00;97712.34;1709681;75;681577;-70
2023/06/03 01:18:07;;;;;;;2.40;2.20;;;;;;;15.10;100.00;97713.84;1700429;75;726979;-72
2023/06/03 01:20:38;;;;;;;3.80;3.20;;;;;;;14.93;100.00;97718.66;1702031;75;674148;-71
2023/06/03 01:23:28;;;;;;;6.40;3.70;;;;;;;14.83;100.00;97715.41;1710322;75;674343;-69
2023/06/03 01:26:00;;;;;;;3.80;3.00;;;;;;;14.89;100.00;97716.91;1700349;75;836634;-68
2023/06/03 01:28:31;;;;;;;4.60;3.50;;;;;;;14.81;100.00;97724.16;1709072;75;676319;-70
2023/06/03 01:31:04;;;;;;;4.30;3.70;;;;;;;14.76;100.00;97719.41;1700767;75;744851;-69
2023/06/03 01:33:39;;;;;;;5.55;4.40;;;;;;;14.62;100.00;97720.44;1709768;75;671641;-71
2023/06/03 01:36:11;;;;;;;6.15;4.60;;;;;;;14.64;100.00;97718.66;1700540;75;748876;-71
2023/06/03 01:38:44;;;;;;;7.60;4.70;;;;;;;14.50;100.00;97716.88;1709918;75;678842;-69
2023/06/03 01:41:15;;;;;;;7.80;4.80;;;;;;;14.49;100.00;97715.41;1701566;75;750485;-70
2023/06/03 01:43:45;;;;;;;6.00;4.20;;;;;;;14.47;100.00;97715.88;1710451;75;674850;-72
2023/06/03 01:46:15;;;;;;;5.00;3.80;;;;;;;14.58;100.00;97714.44;1700952;75;756173;-74
2023/06/03 01:48:46;;;;;;;4.25;3.30;;;;;;;14.63;100.00;97711.66;1709041;75;677046;-69
2023/06/03 01:51:16;;;;;;;4.10;3.10;;;;;;;14.66;100.00;97705.16;1701369;75;753646;-71
2023/06/03 01:53:49;;;;;;;2.80;2.30;;;;;;;14.68;100.00;97707.41;1709255;75;785842;-69
2023/06/03 01:56:19;;;;;;;2.20;2.00;;;;;;;14.64;100.00;97713.16;1698624;75;907758;-69
2023/06/03 01:58:50;;;;;;;2.35;2.05;;;;;;;14.62;100.00;97709.41;1709983;75;670679;-69
2023/06/03 02:01:21;;;;;;;2.25;2.05;;;;;;;14.63;100.00;97713.69;1701705;75;745034;-69
2023/06/03 02:03:51;;;;;;;2.75;2.20;;;;;;;14.52;100.00;97727.41;1710296;75;672981;-71
2023/06/03 02:06:21;;;;;;;4.40;2.90;;;;;;;14.51;100.00;97720.41;1688735;75;1735537;-71
2023/06/03 02:08:55;;;;;;;5.50;2.95;;;;;;;14.39;100.00;97727.94;1708846;75;685541;-69
2023/06/03 02:11:25;;;;;;;4.35;3.40;;;;;;;14.39;100.00;97728.66;1700881;75;739747;-69
2023/06/03 02:13:55;;;;;;;3.45;3.10;;;;;;;14.36;100.00;97726.16;1710378;75;668851;-73
2023/06/03 02:16:25;;;;;;;4.45;3.80;;;;;;;14.24;100.00;97723.41;1701329;75;748661;-71
2023/06/03 02:18:56;;;;;;;3.15;2.85;;;;;;;14.25;100.00;97729.66;1709900;75;680224;-75
2023/06/03 02:21:26;;;;;;;5.40;4.50;;;;;;;13.91;100.00;97729.59;1701299;75;753908;-70
2023/06/03 02:23:59;;;;;;;6.90;5.30;;;;;;;13.81;100.00;97736.56;1708095;75;865242;-69
2023/06/03 02:26:29;;;;;;;5.85;5.25;;;;;;;13.63;100.00;97748.75;1700961;75;734397;-72
2023/06/03 02:28:59;;;;;;;10.00;6.15;;;;;;;13.64;100.00;97748.25;1709860;75;675340;-68
2023/06/03 02:31:30;;;;;;;8.80;6.10;;;;;;;13.52;100.00;97745.97;1701567;75;748445;-73
2023/06/03 02:34:00;;;;;;;9.30;6.40;;;;;;;13.56;100.00;97758.22;1709524;75;685053;-70
2023/06/03 02:36:30;;;;;;;8.70;6.10;;;;;;;13.64;100.00;97747.53;1701694;75;727810;-69
2023/06/03 02:39:03;;;;;;;4.70;4.15;;;;;;;13.77;100.00;97750.56;1709456;75;697007;-69
2023/06/03 02:41:33;;;;;;;6.70;5.55;;;;;;;13.67;100.00;97768.53;1701873;75;744317;-68
2023/06/03 02:44:03;;;;;;;8.65;5.65;;;;;;;13.42;100.00;97761.91;1710156;75;684723;-68
2023/06/03 02:46:34;;;;;;;6.25;4.80;;;;;;;13.65;100.00;97771.03;1700888;75;743163;-69
2023/06/03 02:49:08;;;;;;;3.80;3.40;;;;;;;13.87;100.00;97772.34;1709594;75;672770;-69
2023/06/03 02:51:40;;;;;;;7.65;5.50;;;;;;;13.50;100.00;97767.72;1701516;75;738869;-71
2023/06/03 02:54:13;;;;;;;7.10;5.50;;;;;;;13.58;100.00;97779.75;1710938;75;673349;-72
2023/06/03 02:56:43;;;;;;;5.65;4.40;;;;;;;13.72;100.00;97778.06;1701545;75;760824;-73
2023/06/03 02:59:13;;;;;;;8.60;4.65;;;;;;;13.61;100.00;97779.53;1710888;75;677382;-70
2023/06/03 03:01:43;;;;;;;4.90;3.90;;;;;;;13.76;100.00;97779.31;1702356;75;758200;-70
2023/06/03 03:04:13;;;;;;;4.50;3.70;;;;;;;13.78;100.00;97787.06;1710911;75;681104;-68
2023/06/03 03:06:44;;;;;;;3.65;3.20;;;;;;;13.76;100.00;97773.81;1701421;75;759762;-71
2023/06/03 03:09:17;;;;;;;3.20;2.60;;;;;;;13.79;100.00;97789.34;1710319;75;685829;-69
2023/06/03 03:11:47;;;;;;;2.60;2.40;;;;;;;13.84;100.00;97783.09;1702171;75;745464;-69
2023/06/03 03:14:18;;;;;;;2.30;2.10;;;;;;;13.80;100.00;97790.09;1710459;75;682452;-72
2023/06/03 03:16:48;;;;;;;2.30;2.10;;;;;;;13.72;100.00;97797.31;1701585;75;738682;-69
2023/06/03 03:19:18;;;;;;;1.70;1.50;;;;;;;13.73;100.00;97796.81;1709857;75;675481;-69
2023/06/03 03:21:49;;;;;;;2.45;2.15;;;;;;;13.69;100.00;97799.06;1701619;75;739498;-69
2023/06/03 03:24:22;;;;;;;5.50;4.35;;;;;;;13.45;100.00;97802.19;1710371;75;678052;-73
2023/06/03 03:26:52;;;;;;;5.00;3.95;;;;;;;13.52;100.00;97814.72;1701691;75;751778;-70
2023/06/03 03:29:24;;;;;;;4.25;3.35;;;;;;;13.46;100.00;97817.44;1708043;75;846525;-69
2023/06/03 03:32:07;;;;;;;4.20;3.70;;;;;;;13.38;100.00;97816.38;1701761;75;743166;-68
2023/06/03 03:34:38;;;;;;;7.50;4.00;;;;;;;13.38;100.00;97819.88;1701794;75;690761;-69
2023/06/03 03:37:10;;;;;;;4.30;3.80;;;;;;;13.37;100.00;97831.38;1710468;75;676257;-69
2023/06/03 03:39:44;;;;;;;5.50;4.40;;;;;;;13.41;100.00;97826.41;1701604;75;670814;-71
2023/06/03 03:42:14;;;;;;;3.90;3.40;;;;;;;13.43;100.00;97830.16;1710211;75;671782;-74
2023/06/03 03:44:45;;;;;;;4.00;3.60;;;;;;;13.52;100.00;97839.47;1702441;75;674651;-71
2023/06/03 03:47:24;;;;;;;3.60;3.20;;;;;;;13.64;100.00;97839.03;1708888;75;814484;-69
2023/06/03 03:49:54;;;;;;;3.00;2.45;;;;;;;13.73;100.00;97848.31;1701518;75;740058;-70
2023/06/03 03:52:32;;;;;;;3.20;2.90;;;;;;;13.75;100.00;97854.09;1683489;75;2841556;-70
2023/06/03 03:55:07;;;;;;;4.70;4.00;;;;;;;13.60;100.00;97860.53;1701750;75;748675;-71
2023/06/03 03:57:41;;;;;;;5.40;4.30;;;;;;;13.60;100.00;97854.28;1694886;75;1814325;-69
2023/06/03 04:00:14;;;;;;;5.40;3.60;;;;;;;13.74;100.00;97858.09;1709424;75;796898;-69
2023/06/03 04:02:46;;;;;;;4.00;3.30;;;;;;;13.79;100.00;97860.13;1702815;75;676234;-72
2023/06/03 04:05:16;;;;;;;3.80;3.40;;;;;;;13.84;100.00;97862.16;1710902;75;683713;-70
2023/06/03 04:07:48;;;;;;;5.70;4.65;;;;;;;13.87;100.00;97869.41;1702964;75;682412;-71
2023/06/03 04:10:24;;;;;;;5.30;4.80;;;;;;;13.87;100.00;97865.91;1710453;75;678249;-71
2023/06/03 04:12:55;;;;;;;4.05;3.60;;;;;;;14.03;100.00;97870.75;1702849;75;677223;-74
2023/06/03 04:15:30;;;;;;;4.20;3.80;;;;;;;14.06;100.00;97869.75;1710120;75;669212;-71
2023/06/03 04:18:00;;;;;;;4.40;3.40;;;;;;;14.10;100.00;97884.06;1701347;75;684401;-69
2023/06/03 04:20:48;;;;;;;3.00;2.70;;;;;;;14.27;100.00;97882.09;1708320;75;858926;-70
2023/06/03 04:23:22;;;;;;;4.60;3.70;;;;;;;14.17;100.00;97878.06;1701279;75;746038;-69
2023/06/03 04:25:56;;;;;;;5.50;3.55;;;;;;;14.28;100.00;97877.34;1710318;75;673461;-70
2023/06/03 04:28:26;;;;;;;4.55;3.85;;;;;;;14.27;100.00;97875.84;1701298;75;740965;-69
2023/06/03 04:30:56;;;;;;;5.15;4.05;;;;;;;14.40;100.00;97883.66;1706732;75;965267;-71
2023/06/03 04:33:26;;;;;;;4.05;3.65;;;;;;;14.42;100.00;97887.41;1701074;75;755717;-74
2023/06/03 04:35:56;;;;;;;7.85;5.00;;;;;;;14.28;100.00;97880.09;1709822;75;677148;-70
2023/06/03 04:38:28;;;;;;;4.85;3.95;;;;;;;14.36;100.00;97878.41;1699799;75;819932;-70
2023/06/03 04:41:02;;;;;;;3.90;3.50;;;;;;;14.45;100.00;97891.19;1710441;75;676027;-71
2023/06/03 04:43:32;;;;;;;5.10;4.05;;;;;;;14.40;100.00;97883.66;1701217;75;760865;-70
2023/06/03 04:46:02;;;;;;;5.25;4.35;;;;;;;14.43;100.00;97896.41;1709770;75;687254;-70
2023/06/03 04:48:33;;;;;;;6.45;4.70;;;;;;;14.45;100.00;97891.91;1700146;75;769479;-69
2023/06/03 04:51:07;;;;;;;4.90;3.60;;;;;;;14.58;100.00;97901.78;1710195;75;689451;-70
2023/06/03 04:53:37;;;;;;;5.10;3.85;;;;;;;14.62;100.00;97894.00;1701893;75;738774;-69
2023/06/03 04:56:12;;;;;;;3.60;3.30;;;;;;;14.63;100.00;97898.28;1707297;75;953051;-72
2023/06/03 04:58:43;;;;;;;5.25;4.15;;;;;;;14.57;100.00;97908.53;1701179;75;742359;-71
2023/06/03 05:01:13;;;;;;;4.65;3.95;;;;;;;14.55;100.00;97900.78;1710095;75;673994;-75
2023/06/03 05:03:44;;;;;;;7.00;4.40;;;;;;;14.65;100.00;97906.81;1701592;75;731140;-72
2023/06/03 05:06:14;;;;;;;5.60;3.70;;;;;;;14.67;99.27;97909.78;1709777;75;674971;-70
2023/06/03 05:08:44;;;;;;;5.40;4.10;;;;;;;14.74;92.68;97917.56;1700055;75;738627;-69
2023/06/03 05:11:18;;;;;;;5.20;3.95;;;;;;;14.76;95.20;97909.56;1694907;75;1960130;-68
2023/06/03 05:13:48;;;;;;;5.95;4.90;;;;;;;14.73;91.73;97909.81;1700119;75;804972;-71
2023/06/03 05:16:18;;;;;;;7.20;4.50;;;;;;;14.61;91.59;97918.06;1709770;75;672879;-69
2023/06/03 05:18:49;;;;;;;5.20;4.25;;;;;;;14.72;90.40;97922.09;1700018;75;738805;-70
2023/06/03 05:21:19;;;;;;;5.20;4.05;;;;;;;14.72;89.54;97920.09;1707486;75;818934;-71
2023/06/03 05:23:49;;;;;;;8.40;4.70;;;;;;;14.72;87.97;97924.84;1701833;75;741298;-72
2023/06/03 05:26:22;;;;;;;5.10;4.00;;;;;;;14.74;90.50;97919.59;1709960;75;676865;-71
2023/06/03 05:28:52;;;;;;;9.90;4.80;;;;;;;14.66;88.40;97933.84;1697654;75;934784;-71
2023/06/03 05:31:23;;;;;;;4.65;3.90;;;;;;;14.77;87.81;97922.13;1697191;75;1723440;-71
2023/06/03 05:33:53;;;;;;;7.40;4.30;;;;;;;14.82;91.29;97924.13;1701367;75;743823;-70
2023/06/03 05:36:23;;;;;;;5.60;3.65;;;;;;;14.87;88.58;97923.38;1709080;75;679453;-72
2023/06/03 05:38:53;;;;;;;9.35;6.60;;;;;;;14.88;88.20;97924.13;1700454;75;745731;-70
2023/06/03 05:41:26;;;;;;;8.65;6.00;;;;;;;14.89;86.27;97929.16;1707479;75;897507;-73
2023/06/03 05:43:56;;;;;;;4.35;3.85;;;;;;;14.84;82.05;97921.63;1701762;75;735851;-70
2023/06/03 05:46:26;;;;;;;4.05;3.45;;;;;;;15.01;83.56;97927.16;1709219;75;699064;-69
2023/06/03 05:48:56;;;;;;;5.05;3.60;;;;;;;15.13;81.01;97925.94;1700336;75;755495;-70
2023/06/03 05:51:26;;;;;;;6.40;5.70;;;;;;;15.38;81.02;97933.72;1706760;75;675662;-70
2023/06/03 05:53:57;;;;;;;7.70;5.70;;;;;;;15.18;77.94;97940.22;1696070;75;1004139;-69
2023/06/03 05:56:29;;;;;;;7.20;5.00;;;;;;;15.19;78.54;97933.44;1709692;75;668976;-71
2023/06/03 05:59:00;;;;;;;5.90;4.30;;;;;;;15.38;80.35;97942.00;1700822;75;737560;-70
2023/06/03 06:01:30;;;;;;;4.90;4.10;;;;;;;15.35;79.32;97941.00;1709652;75;671194;-69
2023/06/03 06:04:00;;;;;;;4.20;3.40;;;;;;;15.36;74.16;97942.47;1701135;75;751653;-69
2023/06/03 06:06:31;;;;;;;8.35;6.65;;;;;;;15.58;75.48;97935.44;1709860;75;679490;-69
2023/06/03 06:09:01;;;;;;;7.80;5.85;;;;;;;15.44;74.13;97943.50;1701103;75;745577;-69
2023/06/03 06:11:34;;;;;;;5.20;4.00;;;;;;;15.54;73.45;97941.25;1708939;75;760556;-68
2023/06/03 06:14:04;;;;;;;3.85;3.15;;;;;;;15.72;74.09;97943.50;1701137;75;756931;-72
2023/06/03 06:16:34;;;;;;;3.30;2.60;;;;;;;15.81;72.88;97944.50;1710408;75;667920;-69
2023/06/03 06:19:04;;;;;;;4.50;3.40;;;;;;;15.84;73.48;97949.00;1700644;75;749299;-71
2023/06/03 06:21:36;;;;;;;4.30;3.15;;;;;;;15.88;71.60;97946.75;1709948;75;678903;-69
2023/06/03 06:24:07;;;;;;;4.65;3.60;;;;;;;15.93;72.30;97941.22;1701306;75;742564;-69
2023/06/03 06:26:40;;;;;;;4.00;3.50;;;;;;;15.90;69.64;97947.75;1707986;75;913395;-70
2023/06/03 06:29:10;;;;;;;5.70;4.70;;;;;;;16.06;70.91;97948.94;1686705;75;1903348;-69
2023/06/03 06:31:40;;;;;;;4.90;3.30;;;;;;;16.24;70.50;97944.91;1710264;75;671367;-68
2023/06/03 06:34:12;;;;;;;4.35;3.00;;;;;;;16.28;70.55;97945.38;1701039;75;740305;-72
2023/06/03 06:36:52;;;;;;;7.10;4.10;;;;;;;16.14;69.27;97938.16;1710422;75;673966;-72
2023/06/03 06:39:51;;;;;;;5.30;3.40;;;;;;;16.13;71.12;97942.16;1687913;75;1743018;-68
2023/06/03 06:42:34;;;;;;;;;;;;;;;16.08;68.70;97940.91;1701617;75;674716;-69
2023/06/03 06:45:27;;;;;;;5.00;3.30;;;;;;;15.96;67.05;97944.97;1702013;75;677292;-73
2023/06/03 06:48:06;;;;;;;7.05;4.75;;;;;;;16.16;66.70;97949.44;1709709;75;676806;-69
2023/06/03 06:50:51;;;;;;;8.60;7.00;;;;;;;16.17;68.65;97948.94;1708370;75;874048;-69
2023/06/03 06:53:22;;;;;;;4.70;3.45;;;;;;;16.20;68.02;97952.69;1701414;75;678973;-72
2023/06/03 06:55:55;;;;;;;4.00;3.00;;;;;;;16.16;66.80;97955.72;1710076;75;678606;-69
2023/06/03 06:58:36;;;;;;;4.70;2.45;;;;;;;16.37;67.39;97958.91;1700785;75;742117;-75
2023/06/03 07:01:07;;;;;;;4.50;3.10;;;;;;;16.22;67.68;97950.19;1699440;75;867129;-74
2023/06/03 07:03:39;;;;;;;3.70;2.20;;;;;;;16.47;67.60;97964.91;1710644;75;669436;-68
2023/06/03 07:06:10;;;;;;;3.60;2.70;;;;;;;16.35;69.41;97955.91;1702280;75;677113;-70
2023/06/03 07:08:40;;;;;;;3.70;2.40;;;;;;;16.74;68.46;97963.28;1709202;75;670589;-68
2023/06/03 07:11:11;;;;;;;2.35;1.80;;;;;;;16.82;68.54;97955.22;1702611;75;681926;-70
2023/06/03 07:13:44;;;;;;;4.20;2.35;;;;;;;16.68;67.71;97948.00;1710314;75;679087;-72
2023/06/03 07:16:14;;;;;;;2.90;2.20;;;;;;;16.57;68.49;97955.06;1701510;75;684731;-72
2023/06/03 07:18:44;;;;;;;2.95;2.25;;;;;;;16.90;67.18;97958.19;1709905;75;676350;-72
2023/06/03 07:21:14;;;;;;;1.90;1.70;;;;;;;17.10;68.05;97949.53;1702833;75;691617;-71
2023/06/03 07:23:51;;;;;;;3.50;2.40;;;;;;;16.96;68.46;97953.41;1710067;75;668583;-70
2023/06/03 07:26:21;;;;;;;2.10;1.90;;;;;;;17.20;68.06;97956.25;1699466;75;904621;-70
2023/06/03 07:28:56;;;;;;;2.70;1.70;;;;;;;17.29;67.55;97951.66;1709814;75;673899;-71
2023/06/03 07:31:30;;;;;;;2.00;1.80;;;;;;;17.46;67.80;97949.50;1701481;75;744815;-69
2023/06/03 07:34:00;;;;;;;3.60;2.30;;;;;;;17.18;67.52;97958.78;1710222;75;670895;-71
2023/06/03 07:36:31;;;;;;;3.05;2.00;;;;;;;17.53;67.85;97950.97;1701562;75;733238;-68
2023/06/03 07:39:06;;;;;;;2.00;1.60;;;;;;;17.83;66.39;97953.75;1708299;75;733595;-72
2023/06/03 07:41:42;;;;;;;4.25;1.50;;;;;;;17.96;67.46;97947.59;1701069;75;742682;-71
2023/06/03 07:44:18;;;;;;;2.60;1.70;;;;;;;18.08;64.75;97951.75;1698824;75;920521;-69
2023/06/03 07:46:59;;;;;;;3.00;1.90;;;;;;;17.99;64.73;97952.84;1710098;75;681475;-73
2023/06/03 07:49:30;;;;;;;2.00;1.50;;;;;;;18.24;63.64;97955.59;1699962;75;681547;-74
2023/06/03 07:52:00;;;;;;;4.30;2.60;;;;;;;17.66;63.00;97954.63;1708538;75;743536;-71
2023/06/03 07:54:32;;;;;;;2.60;2.20;;;;;;;18.25;61.99;97960.63;1701280;75;679537;-73
2023/06/03 07:57:03;;;;;;;3.20;2.30;;;;;;;18.06;61.91;97954.28;1709887;75;671247;-68
2023/06/03 07:59:37;;;;;;;4.50;2.80;;;;;;;17.99;60.01;97946.53;1700780;75;673416;-69
2023/06/03 08:02:11;;;;;;;3.20;2.20;;;;;;;18.28;60.52;97956.81;1709548;75;675944;-69
2023/06/03 08:04:42;;;;;;;3.25;2.30;;;;;;;18.13;60.24;97950.94;1699480;75;782533;-72
2023/06/03 08:07:12;;;;;;;3.50;2.50;;;;;;;18.25;60.91;97957.09;1709421;75;675086;-73
2023/06/03 08:09:45;;;;;;;4.25;2.70;;;;;;;18.14;58.79;97952.44;1698353;75;746202;-74
2023/06/03 08:12:15;;;;;;;3.70;2.80;;;;;;;18.05;60.70;97958.31;1709395;75;681366;-70
2023/06/03 08:14:48;;;;;;;2.90;2.20;;;;;;;18.36;60.59;97956.25;1698942;75;795256;-74
2023/06/03 08:17:20;;;;;;;4.55;2.40;;;;;;;18.38;59.25;97954.44;1709714;75;673912;-73
2023/06/03 08:19:50;;;;;;;3.85;2.40;;;;;;;18.44;59.08;97946.06;1699590;75;755347;-76
2023/06/03 08:22:43;;;;;;;2.75;1.85;;;;;;;18.78;59.49;97946.41;1705410;75;938685;-71
2023/06/03 08:25:14;;;;;;;4.30;2.70;;;;;;;18.18;58.56;97960.44;1698825;75;862568;-73
2023/06/03 08:27:44;;;;;;;3.60;2.75;;;;;;;18.05;59.57;97958.31;1709508;75;673348;-70
2023/06/03 08:30:20;;;;;;;5.10;2.85;;;;;;;18.19;58.96;97957.16;1699403;75;756526;-72
2023/06/03 08:32:52;;;;;;;2.65;2.05;;;;;;;18.38;58.23;97959.97;1707746;75;674804;-71
2023/06/03 08:35:24;;;;;;;4.60;2.50;;;;;;;18.21;59.82;97954.63;1696983;75;1738968;-69
2023/06/03 08:37:56;;;;;;;3.40;2.50;;;;;;;18.26;62.67;97959.34;1701817;75;692721;-70
2023/06/03 08:40:27;;;;;;;4.10;3.10;;;;;;;18.35;60.27;97958.25;1709938;75;675554;-72
2023/06/03 08:43:05;;;;;;;5.20;2.40;;;;;;;18.81;60.14;97961.22;1702115;75;687548;-70
2023/06/03 08:45:56;;;;;;;4.80;2.60;;;;;;;18.67;57.81;97955.59;1710247;75;686425;-69
2023/06/03 08:48:35;;;;;;;3.45;2.70;;;;;;;18.68;57.08;97959.13;1699898;75;748970;-70
2023/06/03 08:51:08;;;;;;;3.90;2.80;;;;;;;18.64;57.46;97958.66;1700991;75;708158;-73
2023/06/03 08:53:49;;;;;;;4.40;2.70;;;;;;;18.79;58.19;97966.59;1708550;75;756771;-69
2023/06/03 08:56:22;;;;;;;2.70;2.00;;;;;;;18.93;57.84;97960.56;1701568;75;673531;-71
2023/06/03 08:58:58;;;;;;;5.00;2.80;;;;;;;18.68;56.41;97970.22;1708755;75;676599;-73
2023/06/03 09:01:39;;;;;;;5.75;2.70;;;;;;;18.68;56.87;97967.44;1700349;75;752094;-71
2023/06/03 09:04:12;;;;;;;3.90;2.70;;;;;;;18.61;57.35;97973.56;1701454;75;688312;-71
2023/06/03 09:06:45;;;;;;;3.60;2.40;;;;;;;18.80;58.71;97974.34;1707885;75;765542;-70
2023/06/03 09:09:17;;;;;;;5.50;2.40;;;;;;;18.77;58.11;97964.31;1698642;75;902216;-70
2023/06/03 09:11:49;;;;;;;6.10;4.30;;;;;;;18.92;58.85;97969.41;1709766;75;673669;-69
2023/06/03 09:14:21;;;;;;;7.80;6.00;;;;;;;18.92;60.36;97972.94;1702026;75;682093;-73
2023/06/03 09:16:56;;;;;;;6.90;4.45;;;;;;;19.00;60.58;97969.56;1709606;75;676792;-70
2023/06/03 09:19:29;;;;;;;5.70;5.10;;;;;;;18.98;58.69;97970.09;1700931;75;693612;-69
2023/06/03 09:22:01;;;;;;;13.60;9.00;;;;;;;19.30;57.07;97972.16;1708588;75;817710;-70
2023/06/03 09:24:31;;;;;;;6.95;4.50;;;;;;;19.42;58.06;97981.06;1701114;75;744962;-75
2023/06/03 09:27:02;;;;;;;5.00;3.00;;;;;;;19.13;55.39;97981.47;1706820;75;918607;-72
2023/06/03 09:29:32;;;;;;;3.95;2.80;;;;;;;19.21;55.24;97978.84;1700283;75;745869;-70
2023/06/03 09:32:05;;;;;;;4.65;2.45;;;;;;;18.72;54.20;97981.75;1709894;75;688792;-71
2023/06/03 09:34:37;;;;;;;3.70;2.80;;;;;;;18.92;55.22;97989.56;1701018;75;753871;-69
2023/06/03 09:37:12;;;;;;;6.20;3.20;;;;;;;18.72;55.94;97984.53;1709629;75;675101;-72
2023/06/03 09:39:43;;;;;;;5.20;2.95;;;;;;;18.72;56.29;97987.31;1700642;75;739395;-69
2023/06/03 09:42:14;;;;;;;4.30;2.70;;;;;;;18.92;56.16;97981.25;1710144;75;674380;-73
2023/06/03 09:44:49;;;;;;;4.35;3.00;;;;;;;18.88;55.56;97982.81;1701274;75;732538;-70
2023/06/03 09:47:22;;;;;;;14.20;6.50;;;;;;;18.77;56.28;97975.41;1709708;75;674012;-71
2023/06/03 09:50:06;;;;;;;4.55;3.00;;;;;;;18.66;55.68;97981.06;1699605;75;749479;-70
2023/06/03 09:52:37;;;;;;;4.20;2.40;;;;;;;18.76;54.52;97985.03;1701505;75;679022;-73
2023/06/03 09:55:10;;;;;;;7.60;2.90;;;;;;;18.48;53.30;97988.84;1709484;75;684386;-69
2023/06/03 09:57:40;;;;;;;5.00;2.70;;;;;;;18.18;52.75;97983.38;1686344;75;1930163;-72
2023/06/03 10:00:14;;;;;;;3.95;2.65;;;;;;;18.06;54.25;97991.06;1710529;75;675716;-69
2023/06/03 10:02:49;;;;;;;3.90;2.40;;;;;;;18.01;54.21;97986.31;1702842;75;686068;-72
2023/06/03 10:05:30;;;;;;;4.90;2.80;;;;;;;18.18;54.93;97993.69;1709092;75;849155;-73
2023/06/03 10:08:00;;;;;;;13.45;8.20;;;;;;;18.19;54.25;97987.66;1701446;75;753202;-69
2023/06/03 10:10:31;;;;;;;5.90;3.70;;;;;;;18.00;55.73;97990.34;1709710;75;743586;-74
2023/06/03 10:13:01;;;;;;;5.15;3.45;;;;;;;18.07;54.80;97998.09;1701847;75;756702;-72
2023/06/03 10:15:39;;;;;;;3.80;2.50;;;;;;;18.25;54.54;97998.66;1710336;75;674846;-70
2023/06/03 10:18:12;;;;;;;3.40;2.50;;;;;;;18.06;55.66;97999.38;1701610;75;740621;-69
2023/06/03 10:20:45;;;;;;;5.30;2.55;;;;;;;18.32;55.10;97992.53;1709869;75;689370;-69
2023/06/03 10:23:16;;;;;;;5.10;3.00;;;;;;;18.56;55.66;97997.31;1699502;75;877656;-70
2023/06/03 10:25:52;;;;;;;4.50;2.60;;;;;;;18.76;55.29;98001.66;1710328;75;680813;-70
2023/06/03 10:28:23;;;;;;;4.25;2.40;;;;;;;18.81;53.65;98000.06;1700939;75;756381;-73
2023/06/03 10:30:55;;;;;;;4.00;2.50;;;;;;;18.99;53.58;97996.56;1710002;75;675803;-69
2023/06/03 10:33:29;;;;;;;3.60;2.40;;;;;;;19.12;53.69;98004.97;1699794;75;833521;-69
2023/06/03 10:36:01;;;;;;;4.50;2.80;;;;;;;18.99;54.85;98001.38;1709916;75;727381;-71
2023/06/03 10:38:33;;;;;;;3.95;2.40;;;;;;;19.29;55.12;97999.19;1700881;75;758212;-74
2023/06/03 10:41:03;;;;;;;6.70;3.25;;;;;;;18.77;54.18;97992.06;1709764;75;708960;-72
2023/06/03 10:43:35;;;;;;;4.10;3.00;;;;;;;18.91;55.43;97992.91;1699452;75;867990;-72
2023/06/03 10:46:06;;;;;;;6.15;3.80;;;;;;;18.60;55.79;97995.00;1710890;75;673940;-71
2023/06/03 10:48:41;;;;;;;4.40;3.40;;;;;;;18.66;57.09;97989.38;1701662;75;753857;-70
2023/06/03 10:51:44;;;;;;;5.30;3.65;;;;;;;18.75;57.97;97997.34;1709528;75;673952;-71
2023/06/03 10:54:35;;;;;;;5.20;3.50;;;;;;;18.96;57.76;97996.88;1702872;75;676582;-71
2023/06/03 10:57:09;;;;;;;5.00;3.75;;;;;;;19.03;57.69;97996.28;1710441;75;673128;-70
2023/06/03 10:59:46;;;;;;;4.45;3.10;;;;;;;19.43;58.27;97991.63;1700305;75;754112;-75
2023/06/03 11:02:17;;;;;;;4.50;3.40;;;;;;;19.22;56.16;97987.91;1700897;75;863088;-72
2023/06/03 11:04:50;;;;;;;4.00;2.70;;;;;;;19.79;55.24;97988.56;1686433;75;2732465;-71
2023/06/03 11:07:47;;;;;;;4.60;2.85;;;;;;;19.71;54.16;97990.47;1702582;75;680599;-74
2023/06/03 11:10:45;;;;;;;5.30;3.10;;;;;;;19.65;54.66;97978.66;1701810;75;702378;-73
2023/06/03 11:13:45;;;;;;;6.50;4.50;;;;;;;19.74;56.99;97986.63;1702432;75;679822;-70
2023/06/03 11:16:15;;;;;;;7.30;5.70;;;;;;;20.00;56.52;97983.16;1702543;75;683503;-71
2023/06/03 11:18:45;;;;;;;4.40;3.40;;;;;;;20.27;55.59;97983.91;1707912;75;847615;-73
2023/06/03 11:21:53;;;;;;;7.00;4.10;;;;;;;20.27;54.25;97983.19;1702678;75;674828;-70
2023/06/03 11:24:54;;;;;;;2.90;2.20;;;;;;;20.60;53.98;97971.41;1702823;75;671934;-72
2023/06/03 11:27:27;;;;;;;4.80;2.80;;;;;;;20.30;56.22;97974.53;1702050;75;677796;-75
2023/06/03 11:29:59;;;;;;;4.00;2.60;;;;;;;20.54;53.10;97970.00;1706802;75;894794;-74
2023/06/03 11:32:31;;;;;;;4.45;2.40;;;;;;;20.74;52.07;97969.38;1702511;75;683732;-73
2023/06/03 11:35:32;;;;;;;2.40;1.90;;;;;;;21.09;52.14;97972.16;1710415;75;669892;-73
2023/06/03 11:38:05;;;;;;;4.70;3.90;;;;;;;20.71;50.68;97978.81;1699845;75;755023;-73
2023/06/03 11:40:47;;;;;;;6.10;4.70;;;;;;;20.75;51.34;97976.41;1710183;75;673228;-73
2023/06/03 11:43:17;;;;;;;6.35;4.90;;;;;;;20.98;51.32;97968.34;1701669;75;723676;-71
2023/06/03 11:45:48;;;;;;;4.30;2.90;;;;;;;21.08;51.28;97965.13;1710258;75;710872;-73
2023/06/03 11:48:28;;;;;;;3.95;2.70;;;;;;;21.16;51.27;97965.94;1700663;75;753599;-75
2023/06/03 11:50:59;;;;;;;3.75;2.40;;;;;;;21.04;53.44;97968.22;1701352;75;676991;-70